PST,Max TemperatureF,Mean TemperatureF,Min TemperatureF,Max Dew PointF,MeanDew PointF,Min DewpointF,Max Humidity, Mean Humidity, Min Humidity, Max Sea Level PressureIn, Mean Sea Level PressureIn, Min Sea Level PressureIn, Max VisibilityMiles, Mean VisibilityMiles, Min VisibilityMiles, Max Wind SpeedMPH, Mean Wind SpeedMPH, Max Gust SpeedMPH,PrecipitationIn, CloudCover, Events, WindDirDegrees
2014-1-1,63,47,31,36,32,28,82,56,30,30.19,30.14,30.09,10,9,7,8,2,16,0.00,1,,12
2014-1-2,64,49,33,36,34,31,89,60,31,30.17,30.09,30.03,10,10,8,9,2,15,0.00,0,,60
2014-1-3,66,51,35,41,36,32,92,65,37,30.05,29.99,29.92,10,9,6,10,2,18,0.00,0,,356
2014-1-4,68,51,34,37,30,21,92,55,18,30.08,30.00,29.96,10,9,7,14,3,18,0.00,0,,91
2014-1-5,65,51,36,33,24,14,67,42,17,30.19,30.13,30.06,10,10,7,13,4,21,0.00,0,,74
2014-1-6,59,47,34,40,35,29,85,59,33,30.27,30.19,30.14,10,8,6,9,1,18,0.00,2,,32
2014-1-7,64,51,38,49,38,34,85,61,36,30.20,30.13,30.08,10,8,5,9,2,21,0.00,2,,204
2014-1-8,59,54,48,50,48,46,96,82,67,30.23,30.16,30.10,10,10,8,13,7,22,0.00,5,,250
2014-1-9,63,55,47,50,45,38,96,72,48,30.24,30.18,30.14,10,10,7,13,7,23,0.00,3,,234
2014-1-10,62,51,39,45,41,37,89,70,51,30.27,30.20,30.14,10,10,7,9,2,21,0.00,0,Rain,110
2014-1-11,59,50,41,52,45,40,100,86,72,30.25,30.18,30.11,10,10,8,17,5,22,0.00,3,,205
2014-1-12,62,49,36,43,37,32,100,68,36,30.36,30.29,30.24,10,10,7,12,2,14,0.00,1,,121
2014-1-13,63,50,37,39,35,31,89,62,34,30.45,30.38,30.31,10,10,10,13,3,17,0.00,0,,41
2014-1-14,67,51,34,41,35,30,92,59,26,30.45,30.36,30.30,10,10,7,10,3,20,0.00,0,Rain,348
2014-1-15,70,53,35,41,34,25,92,56,20,30.34,30.25,30.17,10,8,4,10,3,15,0.00,0,,19
2014-1-16,71,52,33,42,32,23,89,53,17,30.23,30.16,30.10,10,9,6,10,2,17,0.00,0,,25
2014-1-17,67,50,33,38,33,27,75,54,32,30.19,30.13,30.09,10,8,6,10,3,21,0.00,0,Rain,71
2014-1-18,69,51,33,35,30,27,89,55,20,30.16,30.09,30.04,10,9,7,10,3,25,0.00,0,,45
2014-1-19,66,49,31,37,32,27,85,58,31,30.13,30.08,30.03,10,9,6,13,3,17,0.00,0,,76
2014-1-20,68,51,33,35,29,26,89,55,21,30.20,30.14,30.09,10,9,6,9,2,18,0.00,0,Rain,70
2014-1-21,70,51,32,31,27,22,75,46,16,30.25,30.18,30.13,10,10,10,9,3,16,0.00,0,Rain,130
2014-1-22,70,52,34,30,25,17,70,42,14,30.13,30.00,29.89,10,10,10,8,2,10,0.00,0,Rain,140
2014-1-23,66,51,35,34,29,24,76,48,20,29.99,29.90,29.85,10,8,5,22,6,26,0.00,0,,92
2014-1-24,71,55,38,35,32,28,79,51,22,30.23,30.12,30.00,10,7,4,9,3,15,0.00,1,,127
2014-1-25,73,58,42,36,30,25,76,46,16,30.24,30.16,30.09,10,10,9,9,3,20,0.00,0,Rain,137
2014-1-26,68,54,40,35,32,28,65,45,24,30.11,30.05,29.99,10,10,9,9,2,14,T,1,,63
2014-1-27,63,51,39,47,42,34,86,69,52,30.15,30.10,30.03,10,10,6,9,3,12,0.00,3,,267
2014-1-28,68,59,50,57,51,45,90,71,52,30.22,30.17,30.14,10,10,10,15,5,17,0.00,5,,238
2014-1-29,65,60,54,57,54,48,100,89,77,30.20,30.09,29.96,10,10,8,14,8,18,0.01,8,Rain,216
2014-1-30,64,57,50,50,46,41,100,73,46,29.94,29.86,29.80,10,10,9,14,6,33,0.09,5,Rain,223
2014-1-31,62,51,40,45,36,21,96,59,22,30.04,29.98,29.88,10,10,10,20,5,26,T,1,Rain,231